METAR Data
IDs: Format: Raw Decoded Include TAF

Data at: 1325 UTC 24 Aug 2019

Region: TOP
KATL 241252Z 34004KT 10SM FEW007 FEW065 FEW150 SCT200 26/22 A3007 RMK AO2 SLP172 T02610217

KBOS 241254Z 35006KT 10SM FEW220 21/09 A3014 RMK AO2 SLP206 T02060094

KBWI 241254Z 02010G20KT 10SM FEW080 FEW180 20/13 A3018 RMK AO2 SLP219 T02000128

KCLE 241251Z 09006KT 10SM FEW040 BKN065 20/12 A3029 RMK AO2 SLP252 T02000117 $

KCLT 241252Z 02007KT 1 1/4SM BR OVC004 19/18 A3013 RMK AO2 SLP195 T01890178

KCVG 241252Z 05008KT 10SM FEW150 FEW250 18/11 A3022 RMK AO2 SLP226 T01780111

KDCA 241252Z 02008KT 10SM FEW110 FEW200 21/13 A3019 RMK AO2 SLP221 T02060133

KDEN 241253Z 25010KT 10SM FEW110 SCT160 SCT220 13/12 A3003 RMK AO2 SLP102 T01330117

KDFW 241253Z 17007KT 10SM FEW040 FEW150 BKN250 26/22 A2993 RMK AO2 SLP124 T02610217

KDTW 241253Z 01009KT 10SM FEW045 17/11 A3032 RMK AO2 SLP265 T01670111

KEWR 241251Z 01012KT 10SM FEW080 21/12 A3017 RMK AO2 SLP217 T02060117

KFLL 241253Z 21004KT 10SM SCT033 SCT080 BKN130 BKN250 27/24 A2992 RMK AO2 SLP132 CB DSNT NE AND E T02720244

KIAD 241252Z 02008KT 10SM FEW080 FEW120 FEW250 19/13 A3020 RMK AO2 SLP224 T01890128 $

KIAH 241253Z 04008KT 8SM -RA FEW020 SCT045 BKN075 BKN250 26/24 A2992 RMK AO2 RAB34 SLP132 VIS N 3 P0001 T02560239

KJFK 241251Z 02010KT 10SM SCT080 21/12 A3017 RMK AO2 SLP217 T02060122

KLAS 241256Z 00000KT 10SM CLR 28/07 A2992 RMK AO2 SLP100 T02780072

KLAX 241253Z 00000KT 10SM FEW011 FEW200 20/17 A2991 RMK AO2 SLP124 T02000167 $

KLGA 241251Z 01008KT 10SM FEW080 21/11 A3017 RMK AO2 SLP215 T02060106

KMCO 241253Z 01008KT 10SM FEW010 SCT250 27/24 A2997 RMK AO2 SLP146 T02720244 $

KMDW 241253Z 14009KT 10SM FEW060 FEW250 19/12 A3028 RMK AO2 SLP249 T01890117

KMEM 241316Z 09007KT 10SM BKN010 BKN028 25/23 A3004 RMK AO2 T02500228

KMIA 241253Z 17003KT 10SM FEW020 FEW080 BKN250 29/24 A2993 RMK AO2 SLP137 CB DSNT NE MOV N TCU DSNT ALQDS T02890244 $

KMSP 241253Z 15009KT 10SM OVC055 18/13 A3026 RMK AO2 SLP246 T01780128

KORD 241251Z 14004KT 10SM FEW020 FEW055 FEW250 18/13 A3028 RMK AO2 SLP252 T01830128

KPDX 241253Z 34004KT 10SM FEW070 SCT190 17/06 A2995 RMK AO2 SLP141 T01670061 $

KPHL 241254Z 01011KT 10SM SCT075 19/12 A3018 RMK AO2 SLP221 T01890122 $

KPHX 241251Z 23006KT 10SM FEW130 SCT180 SCT250 29/22 A2992 RMK AO2 SLP112 T02940217

KPIT 241251Z 08004KT 10SM FEW070 16/11 A3024 RMK AO2 SLP244 T01610111

KSAN 241251Z 00000KT 10SM FEW013 FEW250 19/17 A2990 RMK AO2 SLP126 T01890172

KSEA 241253Z 00000KT 10SM FEW014 BKN021 OVC060 16/10 A2995 RMK AO2 SLP147 T01560100

KSFO 241256Z 27003KT 10SM FEW009 BKN011 16/13 A2989 RMK AO2 SLP121 T01610133

KSLC 241254Z 14007KT 10SM FEW150 BKN220 18/05 A3001 RMK AO2 SLP111 T01830050

KSTL 241251Z 08008KT 10SM FEW050 SCT090 BKN250 18/14 A3018 RMK AO2 SLP213 T01780139

KTPA 241253Z 02005KT 10SM FEW011 SCT280 28/24 A2999 RMK AO2 SLP153 T02780244 $